Ridge, Texas
Current Conditions -  °F | °C
As of 5:35 PM on Wednesday 22 Oct 2014 (Local Time) from KLHB Reporting Station
Clear Clear  
Wind Chill: 79°   Ceiling: Unl
Heat Index: 80°   Visibility: 10mi
Dew Point: 58°   Wind: 5mph
Humidity: 49%   Direction: 60°ENE
Pressure: 30.06"   Gusts: NA
Location:  31.0654°N, 96.4194°W
Report Text: KLHB 222235Z AUTO 06004KT 10SM CLR 26/15 A3006 RMK AO2 T02630147
Loading
Personal Weather Stations






























Interactive Weather Map New forecast layout! Learn more

10-Day Weather Forecast

Advertisements
Track Severe Weather on mobile